Decoded Metar for KGFK (GRAND FORKS in ND, USA) (IATA:GFK) | Meteo·Mobile Aviation Weather
aviador You're here:

KGFK Decoded Metar

GRAND FORKS in ND, USA
Report Time2018-08-19 03:53:00
UTC Time2018-08-19 04:28:23
Flight Rules vfr VFR
Wind180° at 12 kt
W.Decomp.*RWY 17: 12.0 kt HW 0.8 kt RCW
RWY 09: 1.3 kt HW 11.9 kt RCW
W.Rank180° ranks 2
Current wind is above 180° avg. (10.6)
Visibility9999 m
Phenomena:Smoke
Clouds:Overcast 250 Hf
Expected CloudBase > 1,200 ft AGL from Temp-Dew spread
Ceiling25,000 ft
Temp23°C (ISA +9)
Dew Point20°C (83% RH)
AAT22.4°C
QNH1010 hPa
Density Alt2,110 ft
Elevation623 ft
Report Wrong Elevation
Raw Report
KGFK 190353Z 18012KT 10SM OVC250 23/20 A2982 RMK AO2 SLP095 FU
T02330200=

Extra information for KGFK:More info

Metar Taf Metar & Taf Last 4 Metars F.Rules Stats Wind Profile Meteogram Temp Stats Airport Information Weather charts Add Link Nearby VenuesMetar ALERT Operation Metar Decoded Social comments

AIRNAV info for KGFK